Weather at Stone Castle Motel Airport [CLOSED]

Public forecast

Using degrees Fahrenheit for public forecast. Weather courtesy of forecast.io.

Closest aviation weather report (METAR) to Stone Castle Motel Airport

Closest report is Penn Valley Airport, 18.2 nm (33.6 km) WSW. Retrieved 2022/07/07 10:53 UTC (29 minutes ago):

KSEG 071053Z AUTO 33004KT 10SM SCT055 21/17 A2999 RMK AO2 SLP152 T02060167

Closest aviation forecast (TAF) to Stone Castle Motel Airport

Closest forecast is Williamsport Regional Airport, 24.3 nm (45.0 km) NW. Retrieved 2022/07/07 06:22 UTC (5 hours ago):

TAF KIPT 070520Z 0706/0806 32003KT P6SM OVC080 FM070800 VRB03KT P6SM BKN035 OVC100 FM071200 12004KT P6SM SCT050